createdAt,value
2016-08-24T00:00:16.558Z,15.35
2016-08-24T00:01:16.554Z,15.28
2016-08-24T00:02:16.553Z,15.32
2016-08-24T00:03:16.552Z,15.36
2016-08-24T00:04:16.545Z,15.31
2016-08-24T00:05:16.546Z,15.32
2016-08-24T00:06:16.543Z,15.31
2016-08-24T00:07:16.536Z,15.31
2016-08-24T00:08:16.543Z,15.35
2016-08-24T00:09:16.538Z,15.34
2016-08-24T00:10:16.524Z,15.38
2016-08-24T00:11:16.522Z,15.38
2016-08-24T00:12:16.522Z,15.31
2016-08-24T00:13:17.212Z,15.32
2016-08-24T00:14:16.513Z,15.35
2016-08-24T00:15:16.518Z,15.27
2016-08-24T00:16:16.511Z,15.35
2016-08-24T00:17:16.510Z,15.38
2016-08-24T00:18:16.499Z,15.39
2016-08-24T00:19:16.505Z,15.38
2016-08-24T00:20:16.497Z,15.41
2016-08-24T00:21:16.494Z,15.39
2016-08-24T00:22:16.489Z,15.46
2016-08-24T00:23:16.484Z,15.43
2016-08-24T00:24:16.480Z,15.47
2016-08-24T00:25:16.476Z,15.46
2016-08-24T00:26:16.473Z,15.41
2016-08-24T00:27:19.334Z,15.46
2016-08-24T00:28:18.767Z,15.53
2016-08-24T00:29:16.732Z,15.46
2016-08-24T00:30:17.818Z,15.57
2016-08-24T00:31:17.330Z,15.65
2016-08-24T00:32:16.459Z,15.65
2016-08-24T00:33:16.698Z,15.75
2016-08-24T00:34:16.569Z,15.75
2016-08-24T00:35:16.446Z,15.82
2016-08-24T00:36:16.855Z,15.89
2016-08-24T00:37:16.586Z,15.96
2016-08-24T00:38:18.101Z,15.93
2016-08-24T00:39:16.433Z,16
2016-08-24T00:40:16.423Z,16.08
2016-08-24T00:41:16.427Z,16
2016-08-24T00:42:16.427Z,16.07
2016-08-24T00:43:16.426Z,16.09
2016-08-24T00:44:16.418Z,16.09
2016-08-24T00:45:16.415Z,16.25
2016-08-24T00:46:16.411Z,16.28
2016-08-24T00:47:16.405Z,16.25
2016-08-24T00:48:16.411Z,16.3
2016-08-24T00:49:16.399Z,16.38
2016-08-24T00:50:16.412Z,16.39
2016-08-24T00:51:16.390Z,16.42
2016-08-24T00:52:16.391Z,16.45
2016-08-24T00:53:16.392Z,16.5
2016-08-24T00:54:16.388Z,16.48
2016-08-24T00:55:16.386Z,16.58
2016-08-24T00:56:16.388Z,16.58
2016-08-24T00:57:16.374Z,16.57
2016-08-24T00:58:16.375Z,16.64
2016-08-24T00:59:16.381Z,16.67
2016-08-24T01:00:16.370Z,16.7
2016-08-24T01:01:16.366Z,16.73
2016-08-24T01:02:16.363Z,16.76
2016-08-24T01:03:16.356Z,16.78
2016-08-24T01:05:17.102Z,16.78
2016-08-24T01:06:16.352Z,16.83
2016-08-24T01:07:16.347Z,16.83
2016-08-24T01:08:16.352Z,16.86
2016-08-24T01:09:16.993Z,16.94
2016-08-24T01:10:16.346Z,16.98
2016-08-24T01:11:16.344Z,16.98
2016-08-24T01:12:16.333Z,17.01
2016-08-24T01:13:31.256Z,17.07
2016-08-24T01:14:16.531Z,17.07
2016-08-24T01:15:16.576Z,17.06
2016-08-24T01:16:31.243Z,17.12
2016-08-24T01:17:16.322Z,17.22
2016-08-24T01:18:16.571Z,17.11
2016-08-24T01:19:16.314Z,17.11
2016-08-24T01:20:16.326Z,17.18
2016-08-24T01:21:16.315Z,17.19
2016-08-24T01:22:16.315Z,17.15
2016-08-24T01:23:16.308Z,17.19
2016-08-24T01:24:16.312Z,17.21
2016-08-24T01:25:16.298Z,17.33
2016-08-24T01:26:16.300Z,17.31
2016-08-24T01:27:16.306Z,17.37
2016-08-24T01:28:16.290Z,17.23
2016-08-24T01:29:16.293Z,17.28
2016-08-24T01:30:16.293Z,17.26
2016-08-24T01:31:16.288Z,17.36
2016-08-24T01:32:16.293Z,17.38
2016-08-24T01:33:16.283Z,17.38
2016-08-24T01:34:16.279Z,17.3
2016-08-24T01:35:16.282Z,17.41
2016-08-24T01:36:16.273Z,17.41
2016-08-24T01:37:16.280Z,17.38
2016-08-24T01:38:16.270Z,17.43
2016-08-24T01:39:16.268Z,17.43
2016-08-24T01:40:16.266Z,17.48
2016-08-24T01:41:16.267Z,17.49
2016-08-24T01:42:16.263Z,17.43
2016-08-24T01:43:16.281Z,17.43
2016-08-24T01:44:16.255Z,17.43
2016-08-24T01:45:17.776Z,17.49
2016-08-24T01:46:16.254Z,17.55
2016-08-24T01:47:18.009Z,17.49
2016-08-24T01:48:16.259Z,17.49
2016-08-24T01:49:16.406Z,17.54
2016-08-24T01:50:16.245Z,17.64
2016-08-24T01:51:16.814Z,17.55
2016-08-24T01:52:16.236Z,17.56
2016-08-24T01:53:16.235Z,17.56
2016-08-24T01:54:19.147Z,17.58
2016-08-24T01:56:16.244Z,17.54
2016-08-24T01:57:16.539Z,17.56
2016-08-24T01:58:17.115Z,17.56
2016-08-24T01:59:16.967Z,17.64
2016-08-24T02:00:16.217Z,17.63
2016-08-24T02:01:16.465Z,17.58
2016-08-24T02:02:16.215Z,17.58
2016-08-24T02:03:16.212Z,17.55
2016-08-24T02:04:16.209Z,17.63
2016-08-24T02:05:16.214Z,17.56
2016-08-24T02:06:16.898Z,17.59
2016-08-24T02:07:16.199Z,17.64
2016-08-24T02:08:16.206Z,17.71
2016-08-24T02:09:16.206Z,17.58
2016-08-24T02:10:16.213Z,17.66
2016-08-24T02:11:16.215Z,17.64
2016-08-24T02:12:16.193Z,17.59
2016-08-24T02:13:16.194Z,17.63
2016-08-24T02:14:16.191Z,17.64
2016-08-24T02:15:16.185Z,17.74
2016-08-24T02:16:16.189Z,17.66
2016-08-24T02:17:16.191Z,17.64
2016-08-24T02:18:16.883Z,17.7
2016-08-24T02:19:16.176Z,17.74
2016-08-24T02:20:16.179Z,17.7
2016-08-24T02:21:16.170Z,17.71
2016-08-24T02:22:17.137Z,17.78
2016-08-24T02:23:31.487Z,17.74
2016-08-24T02:24:17.917Z,17.72
2016-08-24T02:25:16.166Z,17.81
2016-08-24T02:26:16.412Z,17.74
2016-08-24T02:27:16.157Z,17.79
2016-08-24T02:28:16.505Z,17.87
2016-08-24T02:29:16.454Z,17.86
2016-08-24T02:30:16.157Z,17.82
2016-08-24T02:31:16.159Z,17.84
2016-08-24T02:32:16.652Z,17.82
2016-08-24T02:33:17.149Z,17.74
2016-08-24T02:34:31.062Z,17.84
2016-08-24T02:35:16.136Z,17.84
2016-08-24T02:36:16.158Z,17.84
2016-08-24T02:37:16.287Z,17.9
2016-08-24T02:38:16.133Z,17.87
2016-08-24T02:39:16.233Z,17.89
2016-08-24T02:40:16.836Z,17.87
2016-08-24T02:41:16.141Z,17.95
2016-08-24T02:42:16.128Z,17.87
2016-08-24T02:43:16.826Z,17.87
2016-08-24T02:44:16.125Z,17.92
2016-08-24T02:45:16.123Z,17.9
2016-08-24T02:46:16.115Z,17.96
2016-08-24T02:47:16.121Z,17.86
2016-08-24T02:48:16.121Z,17.9
2016-08-24T02:49:16.115Z,17.9
2016-08-24T02:50:16.116Z,18
2016-08-24T02:51:16.114Z,17.87
2016-08-24T02:52:16.107Z,17.99
2016-08-24T02:53:16.115Z,17.92
2016-08-24T02:54:16.103Z,17.93
2016-08-24T02:55:16.104Z,17.97
2016-08-24T02:56:16.104Z,17.95
2016-08-24T02:57:16.101Z,17.99
2016-08-24T02:58:16.107Z,17.92
2016-08-24T02:59:16.096Z,17.93
2016-08-24T03:00:16.091Z,17.93
2016-08-24T03:01:16.089Z,17.89
2016-08-24T03:02:16.088Z,17.9
2016-08-24T03:04:18.905Z,17.95
2016-08-24T03:05:16.080Z,17.86
2016-08-24T03:06:16.636Z,17.9
2016-08-24T03:07:16.076Z,17.9
2016-08-24T03:08:16.073Z,17.92
2016-08-24T03:09:16.469Z,17.95
2016-08-24T03:10:16.075Z,17.81
2016-08-24T03:11:16.073Z,17.86
2016-08-24T03:12:16.956Z,17.82
2016-08-24T03:13:17.792Z,17.82
2016-08-24T03:14:18.464Z,17.86
2016-08-24T03:15:17.468Z,17.87
2016-08-24T03:16:16.057Z,17.79
2016-08-24T03:17:16.055Z,17.77
2016-08-24T03:18:16.061Z,17.89
2016-08-24T03:19:16.088Z,17.81
2016-08-24T03:20:16.060Z,17.74
2016-08-24T03:21:16.049Z,17.74
2016-08-24T03:22:16.048Z,17.68
2016-08-24T03:23:16.047Z,17.63
2016-08-24T03:24:16.046Z,17.62
2016-08-24T03:25:16.041Z,17.55
2016-08-24T03:26:16.034Z,17.58
2016-08-24T03:27:16.038Z,17.54
2016-08-24T03:28:16.027Z,17.46
2016-08-24T03:29:16.041Z,17.46
2016-08-24T03:30:16.028Z,17.4
2016-08-24T03:31:16.020Z,17.36
2016-08-24T03:32:16.023Z,17.28
2016-08-24T03:33:16.018Z,17.34
2016-08-24T03:34:16.016Z,17.3
2016-08-24T03:35:16.017Z,17.23
2016-08-24T03:36:16.009Z,17.14
2016-08-24T03:37:16.008Z,17.08
2016-08-24T03:38:16.008Z,17.18
2016-08-24T03:39:16.009Z,17.18
2016-08-24T03:40:16.006Z,17.18
2016-08-24T03:41:17.203Z,17.12
2016-08-24T03:42:16.799Z,17.15
2016-08-24T03:43:16.603Z,17.06
2016-08-24T03:44:17.396Z,17.03
2016-08-24T03:45:16.744Z,17.07
2016-08-24T03:46:15.986Z,17
2016-08-24T03:47:15.992Z,17.04
2016-08-24T03:48:15.982Z,17.01
2016-08-24T03:49:15.984Z,16.96
2016-08-24T03:50:16.082Z,16.98
2016-08-24T03:51:17.037Z,17.01
2016-08-24T03:52:15.978Z,16.98
2016-08-24T03:53:16.423Z,16.94
2016-08-24T03:54:16.175Z,16.96
2016-08-24T03:55:15.965Z,16.89
2016-08-24T03:56:15.965Z,16.94
2016-08-24T03:57:15.973Z,16.96
2016-08-24T03:58:15.960Z,16.88
2016-08-24T03:59:15.979Z,16.93
2016-08-24T04:00:15.954Z,16.88
2016-08-24T04:01:15.958Z,16.86
2016-08-24T04:02:15.964Z,16.88
2016-08-24T04:03:15.957Z,16.88
2016-08-24T04:04:15.947Z,16.88
2016-08-24T04:05:15.940Z,16.89
2016-08-24T04:06:15.943Z,16.89
2016-08-24T04:07:15.942Z,16.93
2016-08-24T04:08:15.941Z,16.91
2016-08-24T04:09:15.949Z,16.94
2016-08-24T04:10:15.930Z,16.98
2016-08-24T04:11:15.927Z,17
2016-08-24T04:12:15.923Z,17.01
2016-08-24T04:13:15.921Z,17
2016-08-24T04:14:15.922Z,17.12
2016-08-24T04:15:15.913Z,17.03
2016-08-24T04:16:15.911Z,17.03
2016-08-24T04:17:15.910Z,17.16
2016-08-24T04:18:15.913Z,17.16
2016-08-24T04:19:15.918Z,17.14
2016-08-24T04:20:15.908Z,17.22
2016-08-24T04:21:17.487Z,17.28
2016-08-24T04:22:17.428Z,17.31
2016-08-24T04:23:18.480Z,17.31
2016-08-24T04:24:17.632Z,17.26
2016-08-24T04:25:15.891Z,17.36
2016-08-24T04:26:16.485Z,17.4
2016-08-24T04:27:16.066Z,17.37
2016-08-24T04:28:15.883Z,17.51
2016-08-24T04:29:15.887Z,17.44
2016-08-24T04:30:17.454Z,17.54
2016-08-24T04:32:16.453Z,17.64
2016-08-24T04:33:16.001Z,17.64
2016-08-24T04:34:17.217Z,17.63
2016-08-24T04:35:15.866Z,17.78
2016-08-24T04:36:15.866Z,17.89
2016-08-24T04:37:15.865Z,17.72
2016-08-24T04:38:15.870Z,17.86
2016-08-24T04:39:15.854Z,17.84
2016-08-24T04:40:15.861Z,17.82
2016-08-24T04:41:15.850Z,17.84
2016-08-24T04:42:15.853Z,17.89
2016-08-24T04:43:15.847Z,17.92
2016-08-24T04:44:15.849Z,17.97
2016-08-24T04:45:15.842Z,18
2016-08-24T04:46:15.847Z,18.08
2016-08-24T04:47:15.841Z,18.12
2016-08-24T04:48:15.839Z,18.11
2016-08-24T04:49:15.834Z,18.05
2016-08-24T04:50:15.840Z,18.21
2016-08-24T04:51:15.832Z,18.25
2016-08-24T04:52:15.839Z,18.27
2016-08-24T04:53:15.836Z,18.32
2016-08-24T04:54:15.824Z,18.27
2016-08-24T04:55:15.824Z,18.39
2016-08-24T04:56:16.521Z,18.32
2016-08-24T04:57:15.821Z,18.41
2016-08-24T04:58:15.823Z,18.37
2016-08-24T04:59:16.368Z,18.41
2016-08-24T05:00:16.216Z,18.52
2016-08-24T05:01:16.408Z,18.57
2016-08-24T05:02:15.808Z,18.52
2016-08-24T05:03:15.862Z,18.6
2016-08-24T05:04:15.805Z,18.55
2016-08-24T05:05:15.806Z,18.66
2016-08-24T05:06:15.815Z,18.72
2016-08-24T05:07:15.804Z,18.8
2016-08-24T05:08:16.755Z,18.69
2016-08-24T05:09:16.651Z,18.82
2016-08-24T05:10:15.995Z,18.8
2016-08-24T05:11:16.099Z,18.8
2016-08-24T05:12:15.796Z,18.8
2016-08-24T05:13:15.795Z,18.91
2016-08-24T05:14:15.792Z,18.94
2016-08-24T05:15:15.796Z,18.91
2016-08-24T05:16:15.796Z,18.98
2016-08-24T05:17:15.785Z,19.1
2016-08-24T05:18:15.793Z,19.04
2016-08-24T05:19:15.782Z,19.07
2016-08-24T05:20:15.787Z,19
2016-08-24T05:21:15.787Z,19.16
2016-08-24T05:22:15.785Z,19.07
2016-08-24T05:23:15.784Z,19.11
2016-08-24T05:24:15.778Z,19.16
2016-08-24T05:25:15.781Z,19.18
2016-08-24T05:26:15.777Z,19.29
2016-08-24T05:27:15.781Z,19.31
2016-08-24T05:28:15.776Z,19.33
2016-08-24T05:29:15.774Z,19.39
2016-08-24T05:30:15.775Z,19.51
2016-08-24T05:31:15.784Z,19.63
2016-08-24T05:32:15.776Z,19.76
2016-08-24T05:33:15.771Z,19.92
2016-08-24T05:34:15.777Z,19.91
2016-08-24T05:35:15.776Z,19.88
2016-08-24T05:36:15.767Z,20.14
2016-08-24T05:37:15.774Z,20.26
2016-08-24T05:38:15.781Z,20.41
2016-08-24T05:40:18.900Z,20.77
2016-08-24T05:41:17.416Z,20.94
2016-08-24T05:42:17.335Z,21.13
2016-08-24T05:43:16.183Z,21.31
2016-08-24T05:44:16.475Z,21.56
2016-08-24T05:45:15.775Z,21.92
2016-08-24T05:46:15.778Z,22.21
2016-08-24T05:47:15.784Z,22.46
2016-08-24T05:48:17.353Z,22.73
2016-08-24T05:50:15.888Z,23.28
2016-08-24T05:51:16.214Z,23.68
2016-08-24T05:52:15.793Z,23.93
2016-08-24T05:53:16.817Z,24.24
2016-08-24T05:54:15.806Z,24.52
2016-08-24T05:55:15.808Z,24.76
2016-08-24T05:56:15.802Z,25.17
2016-08-24T05:57:15.817Z,25.46
2016-08-24T05:58:15.819Z,25.77
2016-08-24T05:59:15.820Z,26.02
2016-08-24T06:00:15.831Z,26.39
2016-08-24T06:01:15.836Z,26.63
2016-08-24T06:02:15.839Z,26.88
2016-08-24T06:03:15.848Z,27.19
2016-08-24T06:04:15.866Z,27.32
2016-08-24T06:05:15.864Z,27.55
2016-08-24T06:06:15.866Z,27.92
2016-08-24T06:07:15.881Z,28
2016-08-24T06:08:15.878Z,28.25
2016-08-24T06:09:15.899Z,28.41
2016-08-24T06:10:15.897Z,28.67
2016-08-24T06:11:15.903Z,28.92
2016-08-24T06:12:15.911Z,29
2016-08-24T06:13:15.919Z,29.09
2016-08-24T06:14:16.181Z,29.28
2016-08-24T06:15:15.954Z,29.48
2016-08-24T06:16:15.944Z,29.55
2016-08-24T06:17:16.054Z,29.73
2016-08-24T06:18:16.364Z,29.78
2016-08-24T06:19:15.985Z,29.92
2016-08-24T06:20:16.231Z,29.95
2016-08-24T06:21:16.544Z,30.05
2016-08-24T06:22:16.252Z,30.11
2016-08-24T06:23:16.008Z,30.31
2016-08-24T06:24:16.015Z,30.42
2016-08-24T06:25:16.026Z,30.49
2016-08-24T06:26:16.738Z,30.53
2016-08-24T06:27:16.148Z,30.57
2016-08-24T06:28:16.915Z,30.58
2016-08-24T06:29:16.303Z,30.64
2016-08-24T06:30:16.623Z,30.73
2016-08-24T06:31:16.586Z,30.75
2016-08-24T06:32:16.105Z,30.76
2016-08-24T06:33:16.110Z,30.82
2016-08-24T06:34:16.116Z,30.94
2016-08-24T06:35:16.128Z,30.99
2016-08-24T06:36:16.132Z,31.04
2016-08-24T06:37:16.151Z,31.2
2016-08-24T06:38:16.153Z,31.2
2016-08-24T06:39:16.170Z,31.28
2016-08-24T06:40:16.183Z,31.39
2016-08-24T06:41:16.195Z,31.5
2016-08-24T06:42:16.201Z,31.61
2016-08-24T06:43:16.225Z,31.66
2016-08-24T06:44:16.236Z,31.73
2016-08-24T06:45:16.232Z,31.65
2016-08-24T06:46:16.241Z,31.65
2016-08-24T06:47:16.255Z,31.7
2016-08-24T06:48:16.267Z,31.73
2016-08-24T06:49:16.272Z,31.78
2016-08-24T06:50:16.296Z,31.89
2016-08-24T06:51:16.298Z,32
2016-08-24T06:52:16.310Z,31.99
2016-08-24T06:53:16.329Z,31.78
2016-08-24T06:54:16.330Z,31.7
2016-08-24T06:55:16.342Z,31.53
2016-08-24T06:56:16.363Z,31.54
2016-08-24T06:57:17.887Z,31.63
2016-08-24T06:58:17.420Z,31.65
2016-08-24T06:59:16.387Z,31.54
2016-08-24T07:00:16.943Z,31.58
2016-08-24T07:01:16.409Z,31.7
2016-08-24T07:02:16.424Z,31.76
2016-08-24T07:03:16.687Z,31.85
2016-08-24T07:04:16.443Z,31.85
2016-08-24T07:05:16.452Z,31.99
2016-08-24T07:06:16.469Z,32.07
2016-08-24T07:07:18.112Z,32.22
2016-08-24T07:08:17.421Z,32.23
2016-08-24T07:09:16.508Z,32.33
2016-08-24T07:10:16.516Z,32.5
2016-08-24T07:11:16.531Z,32.48
2016-08-24T07:12:16.547Z,32.55
2016-08-24T07:13:16.670Z,32.5
2016-08-24T07:14:16.566Z,32.5
2016-08-24T07:15:16.580Z,32.35
2016-08-24T07:16:16.590Z,32.23
2016-08-24T07:17:16.603Z,32.26
2016-08-24T07:18:16.615Z,32.3
2016-08-24T07:19:16.630Z,32.33
2016-08-24T07:20:16.641Z,32.33
2016-08-24T07:21:16.652Z,32.4
2016-08-24T07:22:16.666Z,32.55
2016-08-24T07:23:16.683Z,32.51
2016-08-24T07:24:16.693Z,32.6
2016-08-24T07:25:16.708Z,32.67
2016-08-24T07:26:16.711Z,32.6
2016-08-24T07:27:16.732Z,32.66
2016-08-24T07:28:16.744Z,32.62
2016-08-24T07:29:16.754Z,32.52
2016-08-24T07:30:16.763Z,32.51
2016-08-24T07:31:16.780Z,32.55
2016-08-24T07:32:16.793Z,32.6
2016-08-24T07:33:16.805Z,32.72
2016-08-24T07:34:16.813Z,32.77
2016-08-24T07:35:17.527Z,32.84
2016-08-24T07:36:16.854Z,32.88
2016-08-24T07:37:17.059Z,33.09
2016-08-24T07:38:31.785Z,33.11
2016-08-24T07:39:16.884Z,33.18
2016-08-24T07:40:16.896Z,33.18
2016-08-24T07:41:17.563Z,33.31
2016-08-24T07:42:16.928Z,33.31
2016-08-24T07:43:16.932Z,33.31
2016-08-24T07:44:18.550Z,33.31
2016-08-24T07:45:17.061Z,33.38
2016-08-24T07:46:17.069Z,33.29
2016-08-24T07:47:16.987Z,33.38
2016-08-24T07:48:17.004Z,33.34
2016-08-24T07:49:17.017Z,33.35
2016-08-24T07:50:17.026Z,33.34
2016-08-24T07:51:17.198Z,33.38
2016-08-24T07:52:17.057Z,33.41
2016-08-24T07:53:17.070Z,33.37
2016-08-24T07:54:17.077Z,33.45
2016-08-24T07:55:17.099Z,33.56
2016-08-24T07:56:17.109Z,33.66
2016-08-24T07:57:17.127Z,33.66
2016-08-24T07:58:17.137Z,33.6
2016-08-24T07:59:17.149Z,33.49
2016-08-24T08:00:17.163Z,33.44
2016-08-24T08:01:17.178Z,33.29
2016-08-24T08:02:17.185Z,33.26
2016-08-24T08:03:17.207Z,33.22
2016-08-24T08:04:17.226Z,33.09
2016-08-24T08:05:17.236Z,32.99
2016-08-24T08:06:17.946Z,32.84
2016-08-24T08:07:17.260Z,32.72
2016-08-24T08:08:17.273Z,32.6
2016-08-24T08:09:17.289Z,32.57
2016-08-24T08:10:17.303Z,32.5
2016-08-24T08:11:17.330Z,32.55
2016-08-24T08:12:17.326Z,32.4
2016-08-24T08:13:17.345Z,32.29
2016-08-24T08:14:17.352Z,32.29
2016-08-24T08:15:17.367Z,32.22
2016-08-24T08:16:18.089Z,32.15
2016-08-24T08:17:17.395Z,32.01
2016-08-24T08:18:18.417Z,31.99
2016-08-24T08:19:18.116Z,31.92
2016-08-24T08:20:17.589Z,31.89
2016-08-24T08:21:17.451Z,31.84
2016-08-24T08:22:17.464Z,31.72
2016-08-24T08:23:17.473Z,31.57
2016-08-24T08:24:17.494Z,31.43
2016-08-24T08:25:18.979Z,31.32
2016-08-24T08:26:19.287Z,31.17
2016-08-24T08:27:17.948Z,31.19
2016-08-24T08:28:17.907Z,31.14
2016-08-24T08:29:17.639Z,30.98
2016-08-24T08:30:17.565Z,30.91
2016-08-24T08:31:17.595Z,30.84
2016-08-24T08:32:17.586Z,30.8
2016-08-24T08:33:17.597Z,30.69
2016-08-24T08:34:17.619Z,30.57
2016-08-24T08:35:17.632Z,30.49
2016-08-24T08:36:17.635Z,30.43
2016-08-24T08:37:17.651Z,30.32
2016-08-24T08:38:17.668Z,30.37
2016-08-24T08:39:17.670Z,30.29
2016-08-24T08:40:17.680Z,30.16
2016-08-24T08:41:17.694Z,30.08
2016-08-24T08:42:17.710Z,29.95
2016-08-24T08:43:17.715Z,29.83
2016-08-24T08:44:17.730Z,29.73
2016-08-24T08:45:17.726Z,29.6
2016-08-24T08:46:17.741Z,29.58
2016-08-24T08:47:17.748Z,29.58
2016-08-24T08:48:17.763Z,29.52
2016-08-24T08:49:17.772Z,29.48
2016-08-24T08:50:17.779Z,29.42
2016-08-24T08:51:17.786Z,29.27
2016-08-24T08:52:17.797Z,29.14
2016-08-24T08:53:33.675Z,29.11
2016-08-24T08:54:18.312Z,29
2016-08-24T08:56:18.330Z,28.98
2016-08-24T08:57:18.100Z,28.85
2016-08-24T08:58:17.842Z,29
2016-08-24T08:59:17.850Z,28.89
2016-08-24T09:00:17.866Z,28.83
2016-08-24T09:01:17.872Z,28.83
2016-08-24T09:02:19.727Z,28.85
2016-08-24T09:03:18.189Z,28.77
2016-08-24T09:04:18.741Z,28.7
2016-08-24T09:05:18.851Z,28.68
2016-08-24T09:06:17.906Z,28.7
2016-08-24T09:07:17.918Z,28.71
2016-08-24T09:08:17.919Z,28.67
2016-08-24T09:09:17.930Z,28.56
2016-08-24T09:10:17.940Z,28.46
2016-08-24T09:11:17.952Z,28.46
2016-08-24T09:12:17.955Z,28.34
2016-08-24T09:13:17.958Z,28.36
2016-08-24T09:14:17.963Z,28.33
2016-08-24T09:15:17.973Z,28.31
2016-08-24T09:16:17.981Z,28.14
2016-08-24T09:17:17.991Z,28.09
2016-08-24T09:18:18.001Z,27.99
2016-08-24T09:19:18.003Z,28
2016-08-24T09:20:18.013Z,27.87
2016-08-24T09:21:18.023Z,27.82
2016-08-24T09:22:18.030Z,27.74
2016-08-24T09:23:18.722Z,27.69
2016-08-24T09:24:18.034Z,27.62
2016-08-24T09:25:18.041Z,27.54
2016-08-24T09:26:18.051Z,27.43
2016-08-24T09:27:18.056Z,27.39
2016-08-24T09:28:18.065Z,27.32
2016-08-24T09:29:18.071Z,27.4
2016-08-24T09:30:18.078Z,27.34
2016-08-24T09:31:18.077Z,27.43
2016-08-24T09:32:18.089Z,27.4
2016-08-24T09:33:18.092Z,27.34
2016-08-24T09:34:21.134Z,27.32
2016-08-24T09:35:18.847Z,27.31
2016-08-24T09:36:20.266Z,27.13
2016-08-24T09:37:18.256Z,27.17
2016-08-24T09:38:18.122Z,27.13
2016-08-24T09:39:18.132Z,27.09
2016-08-24T09:40:18.134Z,27.1
2016-08-24T09:41:18.133Z,27.13
2016-08-24T09:42:18.147Z,27.17
2016-08-24T09:43:19.672Z,27.17
2016-08-24T09:44:18.161Z,27.12
2016-08-24T09:45:19.848Z,27.03
2016-08-24T09:46:18.170Z,27.17
2016-08-24T09:47:18.168Z,27.13
2016-08-24T09:48:18.179Z,27.09
2016-08-24T09:49:18.181Z,27.09
2016-08-24T09:50:18.185Z,27.03
2016-08-24T09:51:18.197Z,27.06
2016-08-24T09:52:18.201Z,27.03
2016-08-24T09:53:18.210Z,27.03
2016-08-24T09:54:18.208Z,27.03
2016-08-24T09:55:18.223Z,26.99
2016-08-24T09:56:18.222Z,27
2016-08-24T09:57:18.227Z,26.89
2016-08-24T09:58:18.251Z,26.82
2016-08-24T09:59:18.235Z,26.81
2016-08-24T10:00:18.251Z,26.67
2016-08-24T10:01:18.266Z,26.63
2016-08-24T10:07:18.284Z,26.26
2016-08-24T10:08:18.283Z,26.26
2016-08-24T10:09:18.288Z,26.15
2016-08-24T10:10:18.296Z,26.1
2016-08-24T10:11:19.598Z,26.06
2016-08-24T10:12:18.654Z,26.02
2016-08-24T10:13:18.305Z,26.07
2016-08-24T10:14:18.318Z,26.1
2016-08-24T10:15:18.316Z,26.01
2016-08-24T10:16:18.319Z,25.99
2016-08-24T10:17:18.322Z,26.05
2016-08-24T10:18:18.328Z,26.06
2016-08-24T10:19:18.334Z,26.02
2016-08-24T10:20:19.088Z,26.05
2016-08-24T10:21:18.896Z,26.09
2016-08-24T10:22:18.349Z,26.18
2016-08-24T10:23:18.353Z,26.2
2016-08-24T10:24:18.354Z,26.23
2016-08-24T10:25:18.406Z,26.26
2016-08-24T10:26:18.468Z,26.29
2016-08-24T10:27:18.371Z,26.29
2016-08-24T10:29:18.381Z,26.36
2016-08-24T10:30:18.391Z,26.37
2016-08-24T10:35:21.440Z,26.32
2016-08-24T10:36:18.409Z,26.3
2016-08-24T10:37:18.414Z,26.33
2016-08-24T10:40:18.425Z,26.39
2016-08-24T10:44:19.144Z,26.4
2016-08-24T10:45:18.449Z,26.33
2016-08-24T10:46:19.976Z,26.26
2016-08-24T10:47:18.453Z,26.18
2016-08-24T10:48:24.704Z,26.12
2016-08-24T10:49:25.420Z,26.07
2016-08-24T10:50:18.469Z,26.12
2016-08-24T10:53:20.120Z,26.29
2016-08-24T10:54:18.634Z,26.29
2016-08-24T10:55:20.155Z,26.18
2016-08-24T10:56:18.507Z,26.29
2016-08-24T10:57:18.501Z,26.21
2016-08-24T10:58:18.506Z,26.17
2016-08-24T10:59:18.513Z,26.17
2016-08-24T11:00:18.521Z,26.17
2016-08-24T11:01:19.323Z,26.12
2016-08-24T11:02:19.739Z,26.2
2016-08-24T11:03:18.533Z,26.15
2016-08-24T11:04:21.567Z,26.12
2016-08-24T11:05:19.278Z,26.21
2016-08-24T11:06:18.539Z,26.18
2016-08-24T11:07:18.587Z,26.15
2016-08-24T11:08:18.557Z,26.15
2016-08-24T11:09:18.606Z,26.28
2016-08-24T11:10:18.557Z,26.25
2016-08-24T11:11:18.556Z,26.2
2016-08-24T11:12:18.559Z,26.25
2016-08-24T11:13:20.708Z,26.25
2016-08-24T11:14:18.569Z,26.3
2016-08-24T11:15:18.577Z,26.33
2016-08-24T11:16:18.579Z,26.28
2016-08-24T11:17:18.582Z,26.44
2016-08-24T11:18:18.585Z,26.39
2016-08-24T11:19:18.602Z,26.36
2016-08-24T11:20:18.593Z,26.39
2016-08-24T11:21:18.593Z,26.43
2016-08-24T11:22:18.607Z,26.45
2016-08-24T11:23:18.604Z,26.45
2016-08-24T11:24:18.615Z,26.52
2016-08-24T11:25:18.614Z,26.5
2016-08-24T11:26:18.615Z,26.6
2016-08-24T11:27:18.637Z,26.65
2016-08-24T11:28:18.632Z,26.65
2016-08-24T11:29:19.381Z,26.63
2016-08-24T11:32:33.613Z,26.63
2016-08-24T11:34:18.656Z,26.69
2016-08-24T11:35:18.661Z,26.72
2016-08-24T11:36:18.654Z,26.75
2016-08-24T11:37:18.665Z,26.77
2016-08-24T11:38:19.169Z,26.84
2016-08-24T11:39:19.274Z,26.76
2016-08-24T11:40:18.682Z,26.69
2016-08-24T11:41:18.685Z,26.7
2016-08-24T11:42:18.703Z,26.65
2016-08-24T11:43:18.996Z,26.54
2016-08-24T11:44:18.705Z,26.63
2016-08-24T11:45:18.702Z,26.66
2016-08-24T11:46:18.710Z,26.67
2016-08-24T11:47:18.704Z,26.66
2016-08-24T11:48:18.718Z,26.7
2016-08-24T11:49:18.719Z,26.69
2016-08-24T11:50:18.724Z,26.69
2016-08-24T11:51:18.725Z,26.73
2016-08-24T11:52:18.732Z,26.7
2016-08-24T11:53:18.743Z,26.67
2016-08-24T11:54:18.739Z,26.7
2016-08-24T11:55:18.749Z,26.81
2016-08-24T11:56:18.756Z,26.75
2016-08-24T11:57:18.749Z,26.76
2016-08-24T11:58:18.760Z,26.75
2016-08-24T11:59:18.760Z,26.75
2016-08-24T12:00:18.761Z,26.75
2016-08-24T12:01:18.769Z,26.77
2016-08-24T12:02:18.777Z,26.82
2016-08-24T12:03:18.780Z,26.75
2016-08-24T12:04:18.789Z,26.84
2016-08-24T12:05:18.796Z,26.69
2016-08-24T12:06:18.797Z,26.81
2016-08-24T12:07:18.800Z,26.85
2016-08-24T12:08:18.802Z,26.8
2016-08-24T12:09:18.805Z,26.8
2016-08-24T12:11:21.658Z,26.8
2016-08-24T12:12:18.833Z,26.77
2016-08-24T12:13:19.392Z,26.82
2016-08-24T12:14:18.836Z,26.76
2016-08-24T12:15:19.930Z,26.73
2016-08-24T12:16:19.542Z,26.65
2016-08-24T12:17:19.540Z,26.57
2016-08-24T12:18:18.849Z,26.63
2016-08-24T12:19:20.499Z,26.65
2016-08-24T12:21:20.181Z,26.7
2016-08-24T12:22:19.261Z,26.8
2016-08-24T12:23:18.870Z,26.84
2016-08-24T12:24:18.871Z,26.77
2016-08-24T12:25:19.262Z,26.84
2016-08-24T12:26:18.882Z,26.82
2016-08-24T12:27:18.892Z,26.81
2016-08-24T12:28:18.893Z,26.81
2016-08-24T12:29:18.898Z,26.84
2016-08-24T12:30:18.904Z,26.84
2016-08-24T12:31:18.908Z,26.85
2016-08-24T12:32:18.920Z,26.92
2016-08-24T12:33:18.919Z,26.97
2016-08-24T12:34:18.924Z,26.97
2016-08-24T12:35:18.921Z,26.94
2016-08-24T12:36:18.935Z,26.91
2016-08-24T12:37:18.938Z,27
2016-08-24T12:38:18.940Z,27.07
2016-08-24T12:39:18.942Z,26.99
2016-08-24T12:40:18.950Z,26.97
2016-08-24T12:41:18.947Z,27.02
2016-08-24T12:42:18.954Z,26.99
2016-08-24T12:43:18.959Z,27.02
2016-08-24T12:44:18.966Z,27.03
2016-08-24T12:45:18.966Z,27
2016-08-24T12:46:18.991Z,26.97
2016-08-24T12:47:33.895Z,27.03
2016-08-24T12:49:19.591Z,26.99
2016-08-24T12:50:20.047Z,27
2016-08-24T12:51:19.203Z,27.02
2016-08-24T12:52:19.001Z,26.97
2016-08-24T12:53:19.454Z,27
2016-08-24T12:54:19.307Z,26.94
2016-08-24T12:55:19.018Z,27
2016-08-24T12:56:19.922Z,27.03
2016-08-24T12:57:20.982Z,27.04
2016-08-24T12:58:20.135Z,27.07
2016-08-24T12:59:19.083Z,27.03
2016-08-24T13:00:19.036Z,27.04
2016-08-24T13:01:19.040Z,27.06
2016-08-24T13:02:19.047Z,27.06
2016-08-24T13:03:19.051Z,27
2016-08-24T13:04:19.059Z,27.1
2016-08-24T13:05:19.159Z,27.09
2016-08-24T13:06:19.064Z,27.02
2016-08-24T13:07:19.076Z,27.14
2016-08-24T13:08:19.070Z,27.1
2016-08-24T13:09:19.083Z,27
2016-08-24T13:10:19.084Z,27.17
2016-08-24T13:11:19.087Z,27.14
2016-08-24T13:12:19.100Z,27.12
2016-08-24T13:13:19.100Z,27.17
2016-08-24T13:14:19.100Z,27.04
2016-08-24T13:15:19.104Z,27.06
2016-08-24T13:16:19.804Z,27.09
2016-08-24T13:17:19.119Z,27.06
2016-08-24T13:18:19.815Z,27.09
2016-08-24T13:19:19.127Z,27.18
2016-08-24T13:20:19.132Z,27.19
2016-08-24T13:21:19.136Z,27.12
2016-08-24T13:22:19.831Z,27.12
2016-08-24T13:23:19.141Z,27.06
2016-08-24T13:24:19.153Z,27.04
2016-08-24T13:25:19.159Z,27.14
2016-08-24T13:26:19.157Z,27.14
2016-08-24T13:27:19.157Z,27